Terminal Aerodrome Forecast
Issued by NWS Raleigh/Durham, NC

Home | Current Version | Previous Version | Text Only | Print | Product List | Glossary On
Versions: 1 2 3 4 5 6 7 8 9 10 11 12 13 14 15 16 17 18 19 20 21 22 23 24 25 26 27 28 29 30 31 32 33 34 35 36 37 38
189
FTUS42 KRAH 280536
TAFFAY
TAF
KFAY 280536Z 2806/2906 18005KT P6SM BKN050
      TEMPO 2807/2811 5SM -SHRA BKN025
     FM281100 VRB05KT 3SM BR SCT005
      TEMPO 2811/2815 BKN009
     FM281500 23005KT P6SM SCT025
     FM281800 20010KT P6SM BKN035=

USA.gov is the U.S. government's official web portal to all federal, state and local government web resources and services.